createdAt,value
2023-03-20T00:00:03.530Z,9.30
2023-03-20T00:01:03.537Z,9.40
2023-03-20T00:02:03.491Z,9.30
2023-03-20T00:03:03.584Z,9.30
2023-03-20T00:04:03.559Z,9.30
2023-03-20T00:05:03.466Z,9.30
2023-03-20T00:06:03.494Z,9.30
2023-03-20T00:07:03.415Z,9.30
2023-03-20T00:08:03.396Z,9.30
2023-03-20T00:09:07.053Z,9.30
2023-03-20T00:10:03.451Z,9.30
2023-03-20T00:11:03.630Z,9.30
2023-03-20T00:12:03.514Z,9.40
2023-03-20T00:13:03.546Z,9.30
2023-03-20T00:14:03.424Z,9.30
2023-03-20T00:15:03.530Z,9.30
2023-03-20T00:16:03.579Z,9.30
2023-03-20T00:17:03.535Z,9.30
2023-03-20T00:18:02.594Z,9.30
2023-03-20T00:19:02.712Z,9.30
2023-03-20T00:20:02.783Z,9.30
2023-03-20T00:21:02.748Z,9.30
2023-03-20T00:22:02.732Z,9.30
2023-03-20T00:23:02.705Z,9.30
2023-03-20T00:24:02.683Z,9.30
2023-03-20T00:25:02.706Z,9.30
2023-03-20T00:26:02.814Z,9.30
2023-03-20T00:27:02.891Z,9.30
2023-03-20T00:28:02.839Z,9.30
2023-03-20T00:29:02.859Z,9.30
2023-03-20T00:30:02.915Z,9.30
2023-03-20T00:31:02.958Z,9.30
2023-03-20T00:32:02.977Z,9.30
2023-03-20T00:33:03.017Z,9.30
2023-03-20T00:34:02.990Z,9.20
2023-03-20T00:35:03.131Z,9.20
2023-03-20T00:36:03.096Z,9.20
2023-03-20T00:37:03.090Z,9.20
2023-03-20T00:38:03.160Z,9.20
2023-03-20T00:39:03.106Z,9.20
2023-03-20T00:40:03.223Z,9.20
2023-03-20T00:41:03.236Z,9.20
2023-03-20T00:42:03.210Z,9.20
2023-03-20T00:43:03.166Z,9.20
2023-03-20T00:44:03.499Z,9.20
2023-03-20T00:45:03.579Z,9.20
2023-03-20T00:46:03.514Z,9.20
2023-03-20T00:47:03.512Z,9.10
2023-03-20T00:48:03.441Z,9.10
2023-03-20T00:49:03.539Z,9.10
2023-03-20T00:50:03.576Z,9.10
2023-03-20T00:51:03.563Z,9.10
2023-03-20T00:52:03.648Z,9.10
2023-03-20T00:53:03.468Z,9.10
2023-03-20T00:54:03.565Z,9.10
2023-03-20T00:55:03.549Z,9.00
2023-03-20T00:56:03.556Z,9.00
2023-03-20T00:57:02.846Z,9.00
2023-03-20T00:58:02.802Z,9.00
2023-03-20T00:59:02.921Z,9.00
2023-03-20T01:00:02.822Z,9.00
2023-03-20T01:01:02.910Z,9.00
2023-03-20T01:02:02.880Z,9.00
2023-03-20T01:03:02.804Z,9.00
2023-03-20T01:04:02.841Z,8.90
2023-03-20T01:05:02.814Z,8.90
2023-03-20T01:06:02.726Z,8.90
2023-03-20T01:07:02.844Z,8.90
2023-03-20T01:08:03.018Z,8.90
2023-03-20T01:09:03.097Z,8.90
2023-03-20T01:10:03.275Z,8.80
2023-03-20T01:11:03.307Z,8.80
2023-03-20T01:12:03.365Z,8.80
2023-03-20T01:13:03.399Z,8.80
2023-03-20T01:14:03.472Z,8.80
2023-03-20T01:15:03.578Z,8.80
2023-03-20T01:16:02.747Z,8.80
2023-03-20T01:17:03.147Z,8.70
2023-03-20T01:18:03.090Z,8.70
2023-03-20T01:19:03.197Z,8.70
2023-03-20T01:20:03.123Z,8.70
2023-03-20T01:21:03.164Z,8.60
2023-03-20T01:22:03.166Z,8.60
2023-03-20T01:23:03.606Z,8.60
2023-03-20T01:24:03.231Z,8.60
2023-03-20T01:25:03.263Z,8.60
2023-03-20T01:26:03.348Z,8.50
2023-03-20T01:27:03.418Z,8.50
2023-03-20T01:28:03.584Z,8.50
2023-03-20T01:29:03.519Z,8.50
2023-03-20T01:30:03.533Z,8.40
2023-03-20T01:31:03.536Z,8.40
2023-03-20T01:32:02.697Z,8.40
2023-03-20T01:33:03.611Z,8.40
2023-03-20T01:34:02.606Z,8.40
2023-03-20T01:35:02.691Z,8.40
2023-03-20T01:36:02.620Z,8.40
2023-03-20T01:37:02.747Z,8.40
2023-03-20T01:38:02.791Z,8.40
2023-03-20T01:39:02.744Z,8.40
2023-03-20T01:40:02.758Z,8.40
2023-03-20T01:41:02.683Z,8.40
2023-03-20T01:42:02.745Z,8.40
2023-03-20T01:43:02.738Z,8.40
2023-03-20T01:44:02.742Z,8.40
2023-03-20T01:45:02.860Z,8.40
2023-03-20T01:46:02.950Z,8.40
2023-03-20T01:47:02.897Z,8.30
2023-03-20T01:48:02.961Z,8.30
2023-03-20T01:49:02.959Z,8.30
2023-03-20T01:50:03.057Z,8.30
2023-03-20T01:51:03.108Z,8.30
2023-03-20T01:52:03.392Z,8.30
2023-03-20T01:53:03.237Z,8.30
2023-03-20T01:54:03.197Z,8.30
2023-03-20T01:55:03.236Z,8.30
2023-03-20T01:56:03.315Z,8.20
2023-03-20T01:57:03.286Z,8.20
2023-03-20T01:58:05.170Z,8.20
2023-03-20T01:59:03.292Z,8.20
2023-03-20T02:00:03.251Z,8.20
2023-03-20T02:01:03.360Z,8.20
2023-03-20T02:02:03.248Z,8.10
2023-03-20T02:03:03.224Z,8.10
2023-03-20T02:04:03.254Z,8.10
2023-03-20T02:05:03.504Z,8.10
2023-03-20T02:06:03.325Z,8.10
2023-03-20T02:07:03.374Z,8.10
2023-03-20T02:08:03.383Z,8.10
2023-03-20T02:09:03.435Z,8.00
2023-03-20T02:10:03.354Z,8.00
2023-03-20T02:11:03.365Z,8.00
2023-03-20T02:12:03.410Z,8.00
2023-03-20T02:13:03.460Z,8.00
2023-03-20T02:14:03.389Z,8.00
2023-03-20T02:15:03.452Z,8.00
2023-03-20T02:16:03.376Z,8.00
2023-03-20T02:17:03.573Z,7.90
2023-03-20T02:18:03.470Z,7.90
2023-03-20T02:19:03.600Z,7.90
2023-03-20T02:20:03.536Z,7.90
2023-03-20T02:21:03.604Z,7.90
2023-03-20T02:22:02.607Z,7.90
2023-03-20T02:23:03.604Z,7.90
2023-03-20T02:24:02.670Z,7.90
2023-03-20T02:25:02.624Z,7.90
2023-03-20T02:26:02.681Z,7.90
2023-03-20T02:27:02.654Z,7.90
2023-03-20T02:28:02.718Z,7.90
2023-03-20T02:29:02.668Z,7.90
2023-03-20T02:30:02.712Z,7.90
2023-03-20T02:31:02.736Z,7.90
2023-03-20T02:32:03.606Z,7.90
2023-03-20T02:33:03.617Z,7.90
2023-03-20T02:34:03.202Z,7.90
2023-03-20T02:35:03.124Z,7.90
2023-03-20T02:36:03.180Z,7.90
2023-03-20T02:37:03.061Z,7.90
2023-03-20T02:38:02.969Z,7.90
2023-03-20T02:39:02.982Z,7.90
2023-03-20T02:40:03.013Z,7.90
2023-03-20T02:41:02.992Z,7.90
2023-03-20T02:42:02.997Z,7.90
2023-03-20T02:43:03.123Z,7.90
2023-03-20T02:44:03.213Z,7.90
2023-03-20T02:45:03.160Z,7.90
2023-03-20T02:46:03.194Z,7.90
2023-03-20T02:47:03.180Z,7.90
2023-03-20T02:48:03.141Z,7.90
2023-03-20T02:49:03.079Z,7.90
2023-03-20T02:50:03.236Z,7.90
2023-03-20T02:51:03.231Z,7.90
2023-03-20T02:52:03.347Z,7.90
2023-03-20T02:53:03.295Z,7.90
2023-03-20T02:54:03.289Z,7.90
2023-03-20T02:55:03.280Z,7.90
2023-03-20T02:56:03.323Z,7.90
2023-03-20T02:57:03.363Z,7.90
2023-03-20T02:58:03.361Z,7.90
2023-03-20T02:59:03.496Z,7.90
2023-03-20T03:00:03.430Z,7.90
2023-03-20T03:01:03.433Z,7.90
2023-03-20T03:02:03.570Z,7.90
2023-03-20T03:03:03.490Z,7.90
2023-03-20T03:04:03.479Z,7.90
2023-03-20T03:05:03.384Z,7.90
2023-03-20T03:06:03.465Z,7.90
2023-03-20T03:07:03.480Z,7.90
2023-03-20T03:08:03.425Z,7.90
2023-03-20T03:09:03.392Z,7.90
2023-03-20T03:10:03.519Z,7.90
2023-03-20T03:11:03.575Z,7.90
2023-03-20T03:12:03.532Z,7.90
2023-03-20T03:13:02.647Z,7.90
2023-03-20T03:14:03.575Z,7.90
2023-03-20T03:15:03.547Z,7.80
2023-03-20T03:16:02.650Z,7.80
2023-03-20T03:17:02.787Z,7.80
2023-03-20T03:18:02.680Z,7.80
2023-03-20T03:19:02.727Z,7.80
2023-03-20T03:20:02.914Z,7.80
2023-03-20T03:21:02.807Z,7.80
2023-03-20T03:22:02.922Z,7.80
2023-03-20T03:23:02.784Z,7.80
2023-03-20T03:24:02.840Z,7.80
2023-03-20T03:25:02.889Z,7.80
2023-03-20T03:26:02.967Z,7.70
2023-03-20T03:27:02.975Z,7.70
2023-03-20T03:28:03.060Z,7.70
2023-03-20T03:29:03.132Z,7.70
2023-03-20T03:30:03.070Z,7.70
2023-03-20T03:31:03.225Z,7.70
2023-03-20T03:32:03.193Z,7.70
2023-03-20T03:33:03.280Z,7.60
2023-03-20T03:34:03.278Z,7.60
2023-03-20T03:35:03.172Z,7.60
2023-03-20T03:36:03.155Z,7.60
2023-03-20T03:37:03.342Z,7.60
2023-03-20T03:38:03.156Z,7.60
2023-03-20T03:39:03.166Z,7.60
2023-03-20T03:40:03.288Z,7.60
2023-03-20T03:41:03.238Z,7.50
2023-03-20T03:42:03.281Z,7.50
2023-03-20T03:43:03.291Z,7.50
2023-03-20T03:44:03.252Z,7.50
2023-03-20T03:45:03.347Z,7.50
2023-03-20T03:46:03.352Z,7.50
2023-03-20T03:47:03.379Z,7.50
2023-03-20T03:48:03.421Z,7.40
2023-03-20T03:49:03.348Z,7.50
2023-03-20T03:50:03.288Z,7.40
2023-03-20T03:51:03.286Z,7.40
2023-03-20T03:52:03.323Z,7.40
2023-03-20T03:53:03.307Z,7.40
2023-03-20T03:54:03.263Z,7.40
2023-03-20T03:55:03.314Z,7.40
2023-03-20T03:56:03.491Z,7.30
2023-03-20T03:57:03.438Z,7.30
2023-03-20T03:58:03.463Z,7.30
2023-03-20T03:59:03.416Z,7.30
2023-03-20T04:00:03.380Z,7.30
2023-03-20T04:01:03.268Z,7.30
2023-03-20T04:02:03.328Z,7.30
2023-03-20T04:03:03.344Z,7.30
2023-03-20T04:04:04.891Z,7.20
2023-03-20T04:05:03.311Z,7.20
2023-03-20T04:06:03.358Z,7.20
2023-03-20T04:07:03.296Z,7.20
2023-03-20T04:08:03.269Z,7.20
2023-03-20T04:09:03.301Z,7.20
2023-03-20T04:10:03.377Z,7.20
2023-03-20T04:11:03.265Z,7.20
2023-03-20T04:12:03.356Z,7.20
2023-03-20T04:13:03.469Z,7.20
2023-03-20T04:14:03.495Z,7.10
2023-03-20T04:15:03.714Z,7.10
2023-03-20T04:16:03.733Z,7.10
2023-03-20T04:17:02.725Z,7.10
2023-03-20T04:18:02.788Z,7.10
2023-03-20T04:19:02.866Z,7.10
2023-03-20T04:20:02.800Z,7.00
2023-03-20T04:21:02.801Z,7.00
2023-03-20T04:22:02.840Z,7.00
2023-03-20T04:23:02.820Z,7.00
2023-03-20T04:24:02.882Z,7.00
2023-03-20T04:25:02.900Z,7.00
2023-03-20T04:26:02.919Z,7.00
2023-03-20T04:27:02.825Z,7.00
2023-03-20T04:28:02.869Z,7.00
2023-03-20T04:29:02.955Z,7.00
2023-03-20T04:30:02.976Z,7.00
2023-03-20T04:31:03.004Z,7.00
2023-03-20T04:32:02.946Z,7.00
2023-03-20T04:33:03.003Z,7.00
2023-03-20T04:34:02.891Z,7.00
2023-03-20T04:35:02.979Z,7.00
2023-03-20T04:36:03.037Z,7.00
2023-03-20T04:37:03.014Z,7.00
2023-03-20T04:38:03.023Z,7.00
2023-03-20T04:39:03.090Z,7.00
2023-03-20T04:40:03.102Z,7.10
2023-03-20T04:41:03.000Z,7.10
2023-03-20T04:42:03.116Z,7.10
2023-03-20T04:43:03.190Z,7.10
2023-03-20T04:44:03.303Z,7.10
2023-03-20T04:45:03.354Z,7.10
2023-03-20T04:46:03.418Z,7.10
2023-03-20T04:47:03.410Z,7.10
2023-03-20T04:48:03.438Z,7.10
2023-03-20T04:49:03.459Z,7.10
2023-03-20T04:50:03.325Z,7.10
2023-03-20T04:51:03.561Z,7.10
2023-03-20T04:52:02.656Z,7.10
2023-03-20T04:53:02.718Z,7.10
2023-03-20T04:54:02.680Z,7.10
2023-03-20T04:55:02.735Z,7.10
2023-03-20T04:56:02.730Z,7.10
2023-03-20T04:57:02.804Z,7.10
2023-03-20T04:58:02.946Z,7.10
2023-03-20T04:59:02.809Z,7.10
2023-03-20T05:00:02.871Z,7.10
2023-03-20T05:01:02.813Z,7.20
2023-03-20T05:02:02.919Z,7.20
2023-03-20T05:03:02.837Z,7.20
2023-03-20T05:04:03.050Z,7.20
2023-03-20T05:05:02.950Z,7.20
2023-03-20T05:06:02.886Z,7.20
2023-03-20T05:07:02.986Z,7.20
2023-03-20T05:08:02.968Z,7.20
2023-03-20T05:09:03.000Z,7.20
2023-03-20T05:10:03.071Z,7.20
2023-03-20T05:11:03.023Z,7.20
2023-03-20T05:12:02.952Z,7.20
2023-03-20T05:13:03.331Z,7.20
2023-03-20T05:14:03.423Z,7.20
2023-03-20T05:15:03.395Z,7.30
2023-03-20T05:16:03.502Z,7.20
2023-03-20T05:17:03.696Z,7.30
2023-03-20T05:18:02.717Z,7.30
2023-03-20T05:19:02.763Z,7.30
2023-03-20T05:20:02.777Z,7.30
2023-03-20T05:21:02.802Z,7.30
2023-03-20T05:22:02.734Z,7.30
2023-03-20T05:23:05.218Z,7.30
2023-03-20T05:24:02.804Z,7.30
2023-03-20T05:25:03.144Z,7.30
2023-03-20T05:26:03.170Z,7.30
2023-03-20T05:27:03.205Z,7.40
2023-03-20T05:28:03.301Z,7.40
2023-03-20T05:29:03.268Z,7.40
2023-03-20T05:30:03.393Z,7.40
2023-03-20T05:31:03.400Z,7.40
2023-03-20T05:32:03.407Z,7.40
2023-03-20T05:33:03.499Z,7.40
2023-03-20T05:34:03.497Z,7.40
2023-03-20T05:35:03.337Z,7.40
2023-03-20T05:36:03.427Z,7.40
2023-03-20T05:37:03.388Z,7.50
2023-03-20T05:38:03.504Z,7.50
2023-03-20T05:39:03.500Z,7.50
2023-03-20T05:40:03.427Z,7.50
2023-03-20T05:41:03.453Z,7.50
2023-03-20T05:42:03.505Z,7.50
2023-03-20T05:43:03.583Z,7.50
2023-03-20T05:44:02.636Z,7.50
2023-03-20T05:45:02.774Z,7.50
2023-03-20T05:46:02.757Z,7.60
2023-03-20T05:47:02.914Z,7.60
2023-03-20T05:48:02.845Z,7.60
2023-03-20T05:49:02.965Z,7.60
2023-03-20T05:50:02.978Z,7.60
2023-03-20T05:51:03.046Z,7.60
2023-03-20T05:52:02.930Z,7.60
2023-03-20T05:53:03.039Z,7.60
2023-03-20T05:54:02.889Z,7.70
2023-03-20T05:55:02.961Z,7.70
2023-03-20T05:56:02.976Z,7.70
2023-03-20T05:57:03.521Z,7.70
2023-03-20T05:58:03.475Z,7.70
2023-03-20T05:59:03.403Z,7.70
2023-03-20T06:00:03.367Z,7.70
2023-03-20T06:01:03.462Z,7.70
2023-03-20T06:02:03.422Z,7.70
2023-03-20T06:03:03.512Z,7.80
2023-03-20T06:04:03.601Z,7.80
2023-03-20T06:05:03.420Z,7.80
2023-03-20T06:06:03.441Z,7.80
2023-03-20T06:07:03.545Z,7.80
2023-03-20T06:08:03.488Z,7.80
2023-03-20T06:09:02.638Z,7.80
2023-03-20T06:10:02.655Z,7.90
2023-03-20T06:11:02.646Z,7.90
2023-03-20T06:12:08.248Z,7.90
2023-03-20T06:13:02.724Z,7.90
2023-03-20T06:14:02.895Z,7.90
2023-03-20T06:15:02.819Z,8.00
2023-03-20T06:16:02.937Z,8.00
2023-03-20T06:17:02.974Z,8.00
2023-03-20T06:18:03.302Z,8.00
2023-03-20T06:19:03.226Z,8.00
2023-03-20T06:20:03.340Z,8.00
2023-03-20T06:21:03.383Z,8.00
2023-03-20T06:22:03.308Z,8.10
2023-03-20T06:23:03.305Z,8.00
2023-03-20T06:24:03.312Z,8.10
2023-03-20T06:25:03.221Z,8.10
2023-03-20T06:26:03.160Z,8.10
2023-03-20T06:27:03.175Z,8.10
2023-03-20T06:28:03.262Z,8.10
2023-03-20T06:29:03.245Z,8.20
2023-03-20T06:30:03.365Z,8.20
2023-03-20T06:31:03.413Z,8.20
2023-03-20T06:32:03.286Z,8.20
2023-03-20T06:33:03.304Z,8.20
2023-03-20T06:34:03.247Z,8.20
2023-03-20T06:35:03.236Z,8.20
2023-03-20T06:36:03.311Z,8.30
2023-03-20T06:37:03.408Z,8.30
2023-03-20T06:38:03.361Z,8.30
2023-03-20T06:39:03.460Z,8.30
2023-03-20T06:40:03.464Z,8.30
2023-03-20T06:41:03.619Z,8.30
2023-03-20T06:42:03.554Z,8.30
2023-03-20T06:43:03.611Z,8.40
2023-03-20T06:44:03.520Z,8.40
2023-03-20T06:45:02.616Z,8.40
2023-03-20T06:46:02.782Z,8.40
2023-03-20T06:47:02.640Z,8.40
2023-03-20T06:48:02.765Z,8.50
2023-03-20T06:49:02.816Z,8.50
2023-03-20T06:50:02.769Z,8.50
2023-03-20T06:51:02.828Z,8.50
2023-03-20T06:52:02.887Z,8.50
2023-03-20T06:53:02.667Z,8.50
2023-03-20T06:54:02.777Z,8.60
2023-03-20T06:55:02.819Z,8.60
2023-03-20T06:56:02.859Z,8.60
2023-03-20T06:57:02.882Z,8.60
2023-03-20T06:58:02.895Z,8.60
2023-03-20T06:59:02.811Z,8.60
2023-03-20T07:00:02.982Z,8.60
2023-03-20T07:01:02.961Z,8.70
2023-03-20T07:02:03.017Z,8.70
2023-03-20T07:03:02.882Z,8.70
2023-03-20T07:04:03.017Z,8.70
2023-03-20T07:05:03.155Z,8.70
2023-03-20T07:06:02.982Z,8.80
2023-03-20T07:07:02.997Z,8.80
2023-03-20T07:08:02.889Z,8.80
2023-03-20T07:09:02.949Z,8.80
2023-03-20T07:10:03.002Z,8.80
2023-03-20T07:11:03.042Z,8.80
2023-03-20T07:12:02.972Z,8.90
2023-03-20T07:13:02.994Z,8.90
2023-03-20T07:14:02.967Z,8.90
2023-03-20T07:15:02.986Z,9.00
2023-03-20T07:16:04.362Z,9.00
2023-03-20T07:17:02.946Z,9.00
2023-03-20T07:18:03.074Z,9.10
2023-03-20T07:19:03.169Z,9.10
2023-03-20T07:20:03.125Z,9.10
2023-03-20T07:21:03.085Z,9.10
2023-03-20T07:22:02.989Z,9.20
2023-03-20T07:23:03.279Z,9.20
2023-03-20T07:24:03.146Z,9.20
2023-03-20T07:25:03.297Z,9.20
2023-03-20T07:26:03.238Z,9.20
2023-03-20T07:27:03.222Z,9.20
2023-03-20T07:28:03.229Z,9.30
2023-03-20T07:29:03.196Z,9.30
2023-03-20T07:30:03.217Z,9.30
2023-03-20T07:31:03.451Z,9.30
2023-03-20T07:32:03.343Z,9.30
2023-03-20T07:33:03.325Z,9.30
2023-03-20T07:34:03.367Z,9.30
2023-03-20T07:35:03.295Z,9.40
2023-03-20T07:36:03.548Z,9.40
2023-03-20T07:37:03.393Z,9.40
2023-03-20T07:38:03.368Z,9.40
2023-03-20T07:39:03.517Z,9.50
2023-03-20T07:40:03.373Z,9.50
2023-03-20T07:41:03.484Z,9.60
2023-03-20T07:42:03.624Z,9.70
2023-03-20T07:43:03.419Z,9.70
2023-03-20T07:44:03.545Z,9.80
2023-03-20T07:45:03.476Z,9.80
2023-03-20T07:46:03.588Z,9.90
2023-03-20T07:47:02.694Z,9.90
2023-03-20T07:48:02.820Z,10.00
2023-03-20T07:49:02.804Z,10.00
2023-03-20T07:50:02.748Z,10.10
2023-03-20T07:51:02.736Z,10.10
2023-03-20T07:52:02.883Z,10.10
2023-03-20T07:53:02.760Z,10.10
2023-03-20T07:54:02.780Z,10.10
2023-03-20T07:55:02.833Z,10.10
2023-03-20T07:56:02.790Z,10.20
2023-03-20T07:57:02.828Z,10.20
2023-03-20T07:58:02.816Z,10.20
2023-03-20T07:59:02.840Z,10.20
2023-03-20T08:00:02.811Z,10.20
2023-03-20T08:01:02.719Z,10.30
2023-03-20T08:02:03.572Z,10.30
2023-03-20T08:03:03.634Z,10.30
2023-03-20T08:04:03.838Z,10.40
2023-03-20T08:05:03.540Z,10.40
2023-03-20T08:06:03.556Z,10.40
2023-03-20T08:07:03.461Z,10.50
2023-03-20T08:08:03.438Z,10.50
2023-03-20T08:09:03.556Z,10.60
2023-03-20T08:10:03.473Z,10.60
2023-03-20T08:11:03.421Z,10.70
2023-03-20T08:12:03.483Z,10.70
2023-03-20T08:13:03.517Z,10.80
2023-03-20T08:14:03.406Z,10.80
2023-03-20T08:15:03.529Z,10.80
2023-03-20T08:16:03.441Z,10.90
2023-03-20T08:17:14.165Z,10.90
2023-03-20T08:18:03.538Z,11.00
2023-03-20T08:19:03.476Z,11.00
2023-03-20T08:20:03.587Z,11.10
2023-03-20T08:21:03.643Z,11.10
2023-03-20T08:22:02.637Z,11.10
2023-03-20T08:23:02.922Z,11.10
2023-03-20T08:24:02.720Z,11.20
2023-03-20T08:25:02.813Z,11.20
2023-03-20T08:26:02.752Z,11.20
2023-03-20T08:27:02.725Z,11.30
2023-03-20T08:28:02.724Z,11.30
2023-03-20T08:29:02.860Z,11.30
2023-03-20T08:30:02.874Z,11.40
2023-03-20T08:31:02.982Z,11.40
2023-03-20T08:32:02.880Z,11.40
2023-03-20T08:33:02.954Z,11.50
2023-03-20T08:34:02.937Z,11.50
2023-03-20T08:35:03.026Z,11.50
2023-03-20T08:36:03.071Z,11.50
2023-03-20T08:37:03.022Z,11.60
2023-03-20T08:38:02.929Z,11.60
2023-03-20T08:39:03.133Z,11.60
2023-03-20T08:40:03.081Z,11.60
2023-03-20T08:41:03.479Z,11.70
2023-03-20T08:42:03.489Z,11.70
2023-03-20T08:43:03.383Z,11.70
2023-03-20T08:44:03.662Z,11.70
2023-03-20T08:45:08.493Z,11.80
2023-03-20T08:46:03.422Z,11.80
2023-03-20T08:47:03.482Z,11.90
2023-03-20T08:48:03.628Z,11.90
2023-03-20T08:49:02.731Z,12.00
2023-03-20T08:50:07.871Z,12.10
2023-03-20T08:51:02.794Z,12.10
2023-03-20T08:52:02.789Z,12.20
2023-03-20T08:53:02.802Z,12.30
2023-03-20T08:54:02.725Z,12.30
2023-03-20T08:55:02.805Z,12.40
2023-03-20T08:56:02.852Z,12.50
2023-03-20T08:57:02.922Z,12.50
2023-03-20T08:58:02.748Z,12.60
2023-03-20T08:59:02.880Z,12.60
2023-03-20T09:00:02.959Z,12.70
2023-03-20T09:01:03.011Z,12.70
2023-03-20T09:02:02.939Z,12.70
2023-03-20T09:03:03.042Z,12.80
2023-03-20T09:04:02.961Z,12.80
2023-03-20T09:05:03.204Z,12.80
2023-03-20T09:06:03.166Z,12.90
2023-03-20T09:07:03.268Z,12.90
2023-03-20T09:08:03.279Z,12.90
2023-03-20T09:09:03.438Z,13.00
2023-03-20T09:10:03.316Z,13.00
2023-03-20T09:11:03.344Z,13.00
2023-03-20T09:12:03.345Z,13.00
2023-03-20T09:13:12.566Z,13.10
2023-03-20T09:14:03.325Z,13.10
2023-03-20T09:15:03.357Z,13.10
2023-03-20T09:16:03.439Z,13.10
2023-03-20T09:17:03.277Z,13.10
2023-03-20T09:18:04.109Z,13.10
2023-03-20T09:19:03.482Z,13.10
2023-03-20T09:20:03.079Z,13.20
2023-03-20T09:21:02.953Z,13.20
2023-03-20T09:22:03.138Z,13.20
2023-03-20T09:23:03.183Z,13.20
2023-03-20T09:24:03.232Z,13.20
2023-03-20T09:25:03.158Z,13.20
2023-03-20T09:26:03.094Z,13.30
2023-03-20T09:27:03.727Z,13.30
2023-03-20T09:28:03.095Z,13.30
2023-03-20T09:29:03.208Z,13.30
2023-03-20T09:30:03.151Z,13.30
2023-03-20T09:31:03.184Z,13.40
2023-03-20T09:32:03.198Z,13.40
2023-03-20T09:33:03.238Z,13.40
2023-03-20T09:34:03.146Z,13.40
2023-03-20T09:35:03.253Z,13.40
2023-03-20T09:36:03.509Z,13.40
2023-03-20T09:37:03.287Z,13.40
2023-03-20T09:38:03.329Z,13.40
2023-03-20T09:39:03.327Z,13.40
2023-03-20T09:40:03.385Z,13.40
2023-03-20T09:41:03.419Z,13.40
2023-03-20T09:42:03.575Z,13.40
2023-03-20T09:43:02.655Z,13.40
2023-03-20T09:44:02.723Z,13.40
2023-03-20T09:45:02.686Z,13.40
2023-03-20T09:46:03.674Z,13.40
2023-03-20T09:47:18.807Z,13.40
2023-03-20T09:48:03.611Z,13.30
2023-03-20T09:49:03.472Z,13.30
2023-03-20T09:50:03.428Z,13.30
2023-03-20T09:51:03.385Z,13.30
2023-03-20T09:52:03.568Z,13.30
2023-03-20T09:53:03.607Z,13.30
2023-03-20T09:54:03.635Z,13.30
2023-03-20T09:55:02.646Z,13.30
2023-03-20T09:56:02.847Z,13.30
2023-03-20T09:57:02.708Z,13.20
2023-03-20T09:58:02.733Z,13.20
2023-03-20T09:59:02.784Z,13.20
2023-03-20T10:00:02.760Z,13.20
2023-03-20T10:01:02.689Z,13.20
2023-03-20T10:02:02.716Z,13.20
2023-03-20T10:03:02.694Z,13.20
2023-03-20T10:04:03.605Z,13.20
2023-03-20T10:05:03.683Z,13.20
2023-03-20T10:06:02.726Z,13.20
2023-03-20T10:07:02.748Z,13.20
2023-03-20T10:08:02.885Z,13.10
2023-03-20T10:09:02.853Z,13.10
2023-03-20T10:10:02.826Z,13.10
2023-03-20T10:11:02.861Z,13.10
2023-03-20T10:12:02.948Z,13.10
2023-03-20T10:13:02.916Z,13.10
2023-03-20T10:14:02.962Z,13.10
2023-03-20T10:15:03.086Z,13.10
2023-03-20T10:16:03.099Z,13.10
2023-03-20T10:17:03.220Z,13.10
2023-03-20T10:18:03.320Z,13.10
2023-03-20T10:19:03.312Z,13.10
2023-03-20T10:20:03.344Z,13.10
2023-03-20T10:21:03.308Z,13.10
2023-03-20T10:22:03.241Z,13.10
2023-03-20T10:23:03.408Z,13.10
2023-03-20T10:24:03.352Z,13.20
2023-03-20T10:25:03.453Z,13.20
2023-03-20T10:26:03.579Z,13.20
2023-03-20T10:27:03.474Z,13.20
2023-03-20T10:28:03.564Z,13.20
2023-03-20T10:29:02.631Z,13.20
2023-03-20T10:30:03.594Z,13.20
2023-03-20T10:31:02.799Z,13.20
2023-03-20T10:32:02.672Z,13.20
2023-03-20T10:33:03.147Z,13.20
2023-03-20T10:34:03.047Z,13.20
2023-03-20T10:35:03.030Z,13.20
2023-03-20T10:36:03.165Z,13.20
2023-03-20T10:37:02.972Z,13.20
2023-03-20T10:38:02.935Z,13.20
2023-03-20T10:39:02.975Z,13.20
2023-03-20T10:40:02.984Z,13.20
2023-03-20T10:41:02.917Z,13.20
2023-03-20T10:42:03.023Z,13.20
2023-03-20T10:43:03.030Z,13.20
2023-03-20T10:44:02.922Z,13.20
2023-03-20T10:45:03.023Z,13.20
2023-03-20T10:46:03.152Z,13.20
2023-03-20T10:47:03.244Z,13.20
2023-03-20T10:48:03.228Z,13.20
2023-03-20T10:49:03.136Z,13.20
2023-03-20T10:50:03.207Z,13.20
2023-03-20T10:51:03.198Z,13.20
2023-03-20T10:52:03.302Z,13.10
2023-03-20T10:53:03.316Z,13.10
2023-03-20T10:54:03.442Z,13.10
2023-03-20T10:55:03.348Z,13.10
2023-03-20T10:56:03.432Z,13.00
2023-03-20T10:57:03.444Z,13.00
2023-03-20T10:58:03.477Z,13.00
2023-03-20T10:59:03.440Z,13.00
2023-03-20T11:00:03.499Z,13.00
2023-03-20T11:01:03.516Z,13.00
2023-03-20T11:02:02.676Z,13.00
2023-03-20T11:03:02.642Z,13.00
2023-03-20T11:04:02.892Z,13.00
2023-03-20T11:05:02.775Z,13.00
2023-03-20T11:06:09.547Z,13.00
2023-03-20T11:07:02.915Z,12.90
2023-03-20T11:08:03.013Z,12.90
2023-03-20T11:09:02.910Z,12.90
2023-03-20T11:10:02.934Z,12.90
2023-03-20T11:11:02.903Z,12.80
2023-03-20T11:12:02.936Z,12.80
2023-03-20T11:13:02.924Z,12.80
2023-03-20T11:14:02.928Z,12.70
2023-03-20T11:15:02.866Z,12.80
2023-03-20T11:16:02.823Z,12.70
2023-03-20T11:17:03.025Z,12.70
2023-03-20T11:18:02.954Z,12.70
2023-03-20T11:19:05.501Z,12.70
2023-03-20T11:20:03.109Z,12.70
2023-03-20T11:21:03.107Z,12.70
2023-03-20T11:22:03.022Z,12.60
2023-03-20T11:23:03.030Z,12.70
2023-03-20T11:24:03.047Z,12.60
2023-03-20T11:25:03.130Z,12.60
2023-03-20T11:26:03.064Z,12.60
2023-03-20T11:27:02.966Z,12.60
2023-03-20T11:28:03.065Z,12.50
2023-03-20T11:29:02.958Z,12.50
2023-03-20T11:30:02.993Z,12.50
2023-03-20T11:31:05.336Z,12.50
2023-03-20T11:32:02.993Z,12.50
2023-03-20T11:33:03.214Z,12.50
2023-03-20T11:34:03.092Z,12.50
2023-03-20T11:35:03.032Z,12.50
2023-03-20T11:36:03.045Z,12.50
2023-03-20T11:37:10.009Z,12.40
2023-03-20T11:38:03.075Z,12.40
2023-03-20T11:39:03.166Z,12.40
2023-03-20T11:40:03.014Z,12.40
2023-03-20T11:41:02.976Z,12.40
2023-03-20T11:42:03.058Z,12.40
2023-03-20T11:43:03.246Z,12.40
2023-03-20T11:44:03.242Z,12.40
2023-03-20T11:45:03.309Z,12.40
2023-03-20T11:46:03.288Z,12.40
2023-03-20T11:47:03.085Z,12.40
2023-03-20T11:48:04.034Z,12.30
2023-03-20T11:49:03.065Z,12.30
2023-03-20T11:50:03.022Z,12.30
2023-03-20T11:51:03.017Z,12.30
2023-03-20T11:52:02.902Z,12.30
2023-03-20T11:53:03.040Z,12.30
2023-03-20T11:54:02.929Z,12.30
2023-03-20T11:55:03.100Z,12.30
2023-03-20T11:56:03.088Z,12.30
2023-03-20T11:57:03.108Z,12.30
2023-03-20T11:58:03.217Z,12.40
2023-03-20T11:59:03.263Z,12.40
2023-03-20T12:00:03.208Z,12.40
2023-03-20T12:01:03.314Z,12.40
2023-03-20T12:02:03.550Z,12.40
2023-03-20T12:03:03.381Z,12.50
2023-03-20T12:04:03.278Z,12.50
2023-03-20T12:05:03.298Z,12.50
2023-03-20T12:06:03.294Z,12.50
2023-03-20T12:07:03.408Z,12.50
2023-03-20T12:08:03.308Z,12.60
2023-03-20T12:09:03.472Z,12.60
2023-03-20T12:10:03.507Z,12.60
2023-03-20T12:11:03.527Z,12.60
2023-03-20T12:12:03.599Z,12.70
2023-03-20T12:13:03.609Z,12.70
2023-03-20T12:14:03.594Z,12.70
2023-03-20T12:15:03.601Z,12.70
2023-03-20T12:16:03.618Z,12.80
2023-03-20T12:17:03.667Z,12.80
2023-03-20T12:18:02.630Z,12.80
2023-03-20T12:19:02.687Z,12.80
2023-03-20T12:20:02.699Z,12.80
2023-03-20T12:21:02.769Z,12.90
2023-03-20T12:22:02.758Z,12.90
2023-03-20T12:23:02.671Z,12.90
2023-03-20T12:24:02.859Z,12.90
2023-03-20T12:25:02.704Z,13.00
2023-03-20T12:26:03.674Z,13.00
2023-03-20T12:27:03.607Z,13.00
2023-03-20T12:28:02.726Z,13.10
2023-03-20T12:29:03.418Z,13.10
2023-03-20T12:30:03.558Z,13.10
2023-03-20T12:31:03.554Z,13.10
2023-03-20T12:32:03.455Z,13.10
2023-03-20T12:33:03.491Z,13.20
2023-03-20T12:34:03.533Z,13.20
2023-03-20T12:35:03.571Z,13.20
2023-03-20T12:36:03.637Z,13.20
2023-03-20T12:37:02.728Z,13.20
2023-03-20T12:38:02.784Z,13.30
2023-03-20T12:39:02.950Z,13.30
2023-03-20T12:40:02.842Z,13.30
2023-03-20T12:41:03.221Z,13.30
2023-03-20T12:42:03.238Z,13.30
2023-03-20T12:43:03.430Z,13.40
2023-03-20T12:44:03.756Z,13.40
2023-03-20T12:45:03.516Z,13.40
2023-03-20T12:46:03.558Z,13.40
2023-03-20T12:47:03.493Z,13.40
2023-03-20T12:48:03.486Z,13.40
2023-03-20T12:49:03.398Z,13.40
2023-03-20T12:50:03.438Z,13.40
2023-03-20T12:51:03.518Z,13.40
2023-03-20T12:52:03.626Z,13.40
2023-03-20T12:53:03.499Z,13.40
2023-03-20T12:54:03.594Z,13.40
2023-03-20T12:55:03.532Z,13.40
2023-03-20T12:56:03.495Z,13.40
2023-03-20T12:57:03.516Z,13.40
2023-03-20T12:58:03.515Z,13.40
2023-03-20T12:59:03.522Z,13.40
2023-03-20T13:00:03.546Z,13.40
2023-03-20T13:01:03.475Z,13.40
2023-03-20T13:02:03.568Z,13.40
2023-03-20T13:03:03.752Z,13.40
2023-03-20T13:04:03.608Z,13.50
2023-03-20T13:05:02.664Z,13.40
2023-03-20T13:06:02.626Z,13.40
2023-03-20T13:07:03.638Z,13.40